Time;durP1;ratioP1;P1;durP2;ratioP2;P2;SDS_P1;SDS_P2;PMS_P1;PMS_P2;Temp;Humidity;BMP_temperature;BMP_pressure;BME280_temperature;BME280_humidity;BME280_pressure;Samples;Min_cycle;Max_cycle;Signal;HPM_P1;HPM_P2
2020/12/14 00:00:54;;;;;;;0.20;0.20;;;;;;;;;;4919242;28;20075;-66
2020/12/14 00:03:22;;;;;;;0.00;0.00;;;;;;;;;;4919780;28;20566;-68
2020/12/14 00:05:47;;;;;;;0.00;0.00;;;;;;;;;;4935262;28;20032;-69
2020/12/14 00:08:15;;;;;;;0.00;0.00;;;;;;;;;;4923573;28;20035;-67
2020/12/14 00:10:43;;;;;;;0.00;0.00;;;;;;;;;;4938349;28;20109;-68
2020/12/14 00:13:13;;;;;;;0.00;0.00;;;;;;;;;;4937997;28;20170;-67
2020/12/14 00:15:41;;;;;;;0.10;0.10;;;;;;;;;;4936750;28;20198;-68
2020/12/14 00:18:08;;;;;;;0.00;0.00;;;;;;;;;;4936593;28;20166;-68
2020/12/14 00:20:36;;;;;;;0.00;0.00;;;;;;;;;;4918979;28;20038;-66
2020/12/14 00:23:02;;;;;;;0.00;0.00;;;;;;;;;;4935667;28;20125;-69
2020/12/14 00:25:30;;;;;;;0.00;0.00;;;;;;;;;;4936659;28;20023;-67
2020/12/14 00:28:06;;;;;;;0.05;0.05;;;;;;;;;;4918734;28;20105;-67
2020/12/14 00:30:36;;;;;;;0.38;0.38;;;;;;;;;;4932128;28;20038;-69
2020/12/14 00:33:06;;;;;;;0.10;0.10;;;;;;;;;;4935988;28;20038;-69
2020/12/14 00:35:32;;;;;;;0.30;0.30;;;;;;;;;;4935798;28;20114;-66
2020/12/14 00:38:01;;;;;;;0.00;0.00;;;;;;;;;;4913650;28;20174;-66
2020/12/14 00:40:29;;;;;;;0.10;0.10;;;;;;;;;;4913695;29;20138;-65
2020/12/14 00:43:02;;;;;;;0.00;0.00;;;;;;;;;;4918960;29;20027;-66
2020/12/14 00:45:30;;;;;;;0.00;0.00;;;;;;;;;;4917566;29;20039;-64
2020/12/14 00:47:56;;;;;;;0.15;0.15;;;;;;;;;;4917363;29;20181;-66
2020/12/14 00:50:24;;;;;;;0.00;0.00;;;;;;;;;;4900374;29;20395;-63
2020/12/14 00:52:52;;;;;;;1.00;0.52;;;;;;;;;;4916524;29;20589;-66
2020/12/14 00:55:18;;;;;;;0.00;0.00;;;;;;;;;;4913591;29;20023;-67
2020/12/14 00:57:46;;;;;;;0.00;0.00;;;;;;;;;;4902206;29;20050;-66
2020/12/14 01:00:16;;;;;;;0.45;0.45;;;;;;;;;;4917797;28;21256;-66
2020/12/14 01:02:43;;;;;;;0.00;0.00;;;;;;;;;;4917152;29;20732;-66
2020/12/14 01:05:09;;;;;;;0.00;0.00;;;;;;;;;;4901111;29;20042;-65
2020/12/14 01:07:34;;;;;;;0.00;0.00;;;;;;;;;;4915562;29;20035;-66
2020/12/14 01:10:02;;;;;;;0.20;0.20;;;;;;;;;;4885260;29;20054;-65
2020/12/14 01:12:30;;;;;;;0.10;0.10;;;;;;;;;;4899079;29;21822;-66
2020/12/14 01:14:58;;;;;;;0.00;0.00;;;;;;;;;;4899111;29;20039;-65
2020/12/14 01:17:26;;;;;;;0.00;0.00;;;;;;;;;;4915983;29;20469;-65
2020/12/14 01:19:56;;;;;;;0.32;0.32;;;;;;;;;;4897821;29;20035;-66
2020/12/14 01:22:24;;;;;;;9.63;1.45;;;;;;;;;;4914222;29;20070;-64
2020/12/14 01:24:52;;;;;;;0.00;0.00;;;;;;;;;;4908687;28;20126;-65
2020/12/14 01:27:17;;;;;;;0.00;0.00;;;;;;;;;;4900063;29;20651;-65
2020/12/14 01:29:43;;;;;;;0.00;0.00;;;;;;;;;;4915396;29;20086;-65
2020/12/14 01:32:10;;;;;;;0.20;0.20;;;;;;;;;;4915512;29;20510;-66
2020/12/14 01:34:41;;;;;;;0.00;0.00;;;;;;;;;;4913444;29;20038;-65
2020/12/14 01:37:25;;;;;;;0.35;0.20;;;;;;;;;;4914007;28;20756;-66
2020/12/14 01:39:53;;;;;;;0.00;0.00;;;;;;;;;;4917376;29;20043;-66
2020/12/14 01:42:23;;;;;;;0.00;0.00;;;;;;;;;;4914776;29;20440;-65
2020/12/14 01:44:51;;;;;;;0.30;0.30;;;;;;;;;;4913239;29;20053;-65
2020/12/14 01:47:29;;;;;;;0.68;0.68;;;;;;;;;;4916611;29;20066;-63
2020/12/14 01:49:55;;;;;;;0.00;0.00;;;;;;;;;;4919167;29;20494;-66
2020/12/14 01:52:24;;;;;;;0.65;0.65;;;;;;;;;;4916412;29;20035;-65
2020/12/14 01:54:55;;;;;;;0.00;0.00;;;;;;;;;;4918796;29;20154;-65
2020/12/14 01:57:21;;;;;;;0.00;0.00;;;;;;;;;;4914810;29;20910;-65
2020/12/14 01:59:46;;;;;;;0.00;0.00;;;;;;;;;;4915089;29;20036;-66
2020/12/14 02:02:14;;;;;;;0.55;0.55;;;;;;;;;;4915134;29;20032;-65
2020/12/14 02:04:42;;;;;;;0.00;0.00;;;;;;;;;;4904782;29;20254;-66
2020/12/14 02:07:08;;;;;;;0.00;0.00;;;;;;;;;;4913667;29;20680;-66
2020/12/14 02:09:38;;;;;;;0.00;0.00;;;;;;;;;;4913529;29;20651;-67
2020/12/14 02:12:06;;;;;;;0.00;0.00;;;;;;;;;;4905618;28;20498;-67
2020/12/14 02:14:31;;;;;;;0.00;0.00;;;;;;;;;;4875093;29;20031;-67
2020/12/14 02:17:03;;;;;;;0.22;0.22;;;;;;;;;;4911530;29;20371;-66
2020/12/14 02:19:31;;;;;;;0.00;0.00;;;;;;;;;;4899897;29;20146;-67
2020/12/14 02:21:59;;;;;;;3.50;2.38;;;;;;;;;;4915953;29;20058;-67
2020/12/14 02:24:24;;;;;;;0.00;0.00;;;;;;;;;;4880566;29;20039;-66
2020/12/14 02:26:52;;;;;;;0.25;0.25;;;;;;;;;;4915279;29;20161;-66
2020/12/14 02:29:18;;;;;;;0.00;0.00;;;;;;;;;;4913307;29;20070;-67
2020/12/14 02:31:48;;;;;;;1.75;1.27;;;;;;;;;;4915194;29;20094;-66
2020/12/14 02:34:16;;;;;;;0.00;0.00;;;;;;;;;;4911790;29;21696;-69
2020/12/14 02:36:42;;;;;;;0.05;0.05;;;;;;;;;;4917242;28;20028;-66
2020/12/14 02:39:11;;;;;;;0.00;0.00;;;;;;;;;;4901889;29;20126;-64
2020/12/14 02:41:40;;;;;;;0.05;0.05;;;;;;;;;;4901886;29;20134;-66
2020/12/14 02:44:08;;;;;;;0.00;0.00;;;;;;;;;;4902996;29;20039;-66
2020/12/14 02:46:36;;;;;;;0.08;0.08;;;;;;;;;;4902463;29;20150;-67
2020/12/14 02:49:08;;;;;;;1.25;1.17;;;;;;;;;;4920696;29;20039;-67
2020/12/14 02:51:34;;;;;;;0.88;0.85;;;;;;;;;;4915375;29;20479;-67
2020/12/14 02:53:59;;;;;;;0.10;0.10;;;;;;;;;;4905326;29;20024;-68
2020/12/14 02:56:28;;;;;;;0.00;0.00;;;;;;;;;;4916488;28;20055;-66
2020/12/14 02:59:00;;;;;;;0.00;0.00;;;;;;;;;;4918181;29;20452;-66
2020/12/14 03:01:28;;;;;;;0.45;0.45;;;;;;;;;;4918108;29;20040;-67
2020/12/14 03:03:56;;;;;;;0.00;0.00;;;;;;;;;;4904832;29;20305;-68
2020/12/14 03:06:24;;;;;;;0.00;0.00;;;;;;;;;;4917929;29;20043;-66
2020/12/14 03:08:49;;;;;;;0.15;0.15;;;;;;;;;;4903711;29;20059;-67
2020/12/14 03:11:17;;;;;;;1.08;0.80;;;;;;;;;;4900483;29;20175;-68
2020/12/14 03:13:42;;;;;;;0.00;0.00;;;;;;;;;;4901334;29;20035;-67
2020/12/14 03:16:11;;;;;;;0.00;0.00;;;;;;;;;;4917297;29;20043;-67
2020/12/14 03:18:36;;;;;;;0.00;0.00;;;;;;;;;;4917807;29;20023;-69
2020/12/14 03:21:05;;;;;;;0.00;0.00;;;;;;;;;;4891148;29;20047;-68
2020/12/14 03:23:32;;;;;;;0.00;0.00;;;;;;;;;;4917508;29;20030;-66
2020/12/14 03:25:58;;;;;;;0.00;0.00;;;;;;;;;;4901727;29;20158;-66
2020/12/14 03:28:26;;;;;;;0.00;0.00;;;;;;;;;;4920501;29;20039;-66
2020/12/14 03:30:51;;;;;;;0.00;0.00;;;;;;;;;;4902356;29;20045;-67
2020/12/14 03:33:19;;;;;;;1.25;1.25;;;;;;;;;;4919636;29;20336;-69
2020/12/14 03:35:48;;;;;;;0.05;0.05;;;;;;;;;;4919135;29;20580;-66
2020/12/14 03:38:17;;;;;;;0.00;0.00;;;;;;;;;;4929469;28;20054;-67
2020/12/14 03:40:47;;;;;;;0.20;0.20;;;;;;;;;;4913786;28;20042;-68
2020/12/14 03:43:17;;;;;;;0.00;0.00;;;;;;;;;;4918903;28;20027;-66
2020/12/14 03:45:42;;;;;;;0.00;0.00;;;;;;;;;;4936104;28;20034;-67
2020/12/14 03:48:10;;;;;;;0.00;0.00;;;;;;;;;;4934826;28;20045;-66
2020/12/14 03:50:42;;;;;;;0.47;0.47;;;;;;;;;;4920165;28;20043;-65
2020/12/14 03:53:10;;;;;;;0.22;0.22;;;;;;;;;;4935696;28;20047;-68
2020/12/14 03:55:38;;;;;;;0.00;0.00;;;;;;;;;;4937714;28;20035;-67
2020/12/14 03:58:08;;;;;;;0.00;0.00;;;;;;;;;;4936915;28;20514;-65
2020/12/14 04:00:34;;;;;;;1.65;1.13;;;;;;;;;;4932914;28;20062;-67
2020/12/14 04:03:08;;;;;;;0.60;0.60;;;;;;;;;;4941064;28;20031;-67
2020/12/14 04:05:38;;;;;;;0.00;0.00;;;;;;;;;;4939017;28;20023;-68
2020/12/14 04:08:04;;;;;;;0.00;0.00;;;;;;;;;;4933803;28;20042;-68
2020/12/14 04:10:34;;;;;;;0.00;0.00;;;;;;;;;;4938714;28;20390;-67
2020/12/14 04:13:00;;;;;;;0.10;0.10;;;;;;;;;;4919725;28;20406;-66
2020/12/14 04:15:28;;;;;;;0.00;0.00;;;;;;;;;;4917413;28;20039;-66
2020/12/14 04:17:53;;;;;;;0.00;0.00;;;;;;;;;;4915868;28;20246;-67
2020/12/14 04:20:21;;;;;;;0.10;0.10;;;;;;;;;;4920847;28;20031;-67
2020/12/14 04:22:49;;;;;;;0.00;0.00;;;;;;;;;;4936853;28;20041;-67
2020/12/14 04:25:20;;;;;;;0.00;0.00;;;;;;;;;;4914641;28;20031;-66
2020/12/14 04:27:48;;;;;;;0.10;0.10;;;;;;;;;;4939860;28;20125;-68
2020/12/14 04:30:16;;;;;;;1.45;0.75;;;;;;;;;;4920026;28;20045;-68
2020/12/14 04:32:44;;;;;;;0.00;0.00;;;;;;;;;;4938614;28;20081;-66
2020/12/14 04:35:10;;;;;;;0.00;0.00;;;;;;;;;;4940154;28;20083;-66
2020/12/14 04:37:35;;;;;;;0.10;0.10;;;;;;;;;;4937043;28;20782;-66
2020/12/14 04:40:01;;;;;;;0.00;0.00;;;;;;;;;;4939112;28;20099;-67
2020/12/14 04:42:30;;;;;;;0.00;0.00;;;;;;;;;;4934103;28;20035;-68
2020/12/14 04:45:00;;;;;;;0.05;0.05;;;;;;;;;;4937340;28;20027;-66
2020/12/14 04:47:30;;;;;;;0.25;0.25;;;;;;;;;;4919386;28;20042;-66
2020/12/14 04:49:56;;;;;;;0.10;0.10;;;;;;;;;;4939782;28;20069;-67
2020/12/14 04:52:24;;;;;;;0.60;0.60;;;;;;;;;;4932526;28;22388;-66
2020/12/14 04:54:52;;;;;;;0.08;0.08;;;;;;;;;;4933431;28;20047;-68
2020/12/14 04:57:20;;;;;;;0.00;0.00;;;;;;;;;;4937059;28;20027;-68
2020/12/14 04:59:45;;;;;;;0.00;0.00;;;;;;;;;;4936754;28;20082;-67
2020/12/14 05:02:16;;;;;;;0.73;0.38;;;;;;;;;;4934063;28;21661;-66
2020/12/14 05:04:44;;;;;;;10.20;0.90;;;;;;;;;;4937432;28;20047;-67
2020/12/14 05:07:15;;;;;;;0.00;0.00;;;;;;;;;;4938104;28;20030;-66
2020/12/14 05:09:43;;;;;;;0.35;0.35;;;;;;;;;;4918556;28;20582;-66
2020/12/14 05:12:21;;;;;;;0.77;0.32;;;;;;;;;;4916688;28;20031;-66
2020/12/14 05:14:49;;;;;;;0.20;0.20;;;;;;;;;;4938998;28;20035;-67
2020/12/14 05:17:24;;;;;;;0.00;0.00;;;;;;;;;;4914096;28;20035;-66
2020/12/14 05:19:50;;;;;;;0.38;0.38;;;;;;;;;;4931865;28;20110;-66
2020/12/14 05:22:19;;;;;;;0.00;0.00;;;;;;;;;;4934775;28;20546;-67
2020/12/14 05:24:49;;;;;;;0.00;0.00;;;;;;;;;;4936919;28;20035;-67
2020/12/14 05:27:34;;;;;;;0.63;0.63;;;;;;;;;;4938209;28;20031;-68
2020/12/14 05:29:59;;;;;;;0.00;0.00;;;;;;;;;;4935891;28;20035;-66
2020/12/14 05:32:25;;;;;;;0.63;0.60;;;;;;;;;;4920942;28;20353;-67
2020/12/14 05:34:52;;;;;;;0.25;0.25;;;;;;;;;;4937416;28;20039;-66
2020/12/14 05:37:18;;;;;;;0.85;0.85;;;;;;;;;;4932757;28;20035;-65
2020/12/14 05:39:45;;;;;;;0.00;0.00;;;;;;;;;;4915509;28;20106;-65
2020/12/14 05:42:14;;;;;;;0.20;0.20;;;;;;;;;;4917857;29;20027;-65
2020/12/14 05:44:44;;;;;;;0.00;0.00;;;;;;;;;;4914250;29;20027;-63
2020/12/14 05:47:26;;;;;;;1.38;0.55;;;;;;;;;;4898918;29;20036;-63
2020/12/14 05:49:58;;;;;;;0.57;0.57;;;;;;;;;;4911541;29;21896;-62
2020/12/14 05:52:27;;;;;;;0.00;0.00;;;;;;;;;;4916369;29;20034;-61
2020/12/14 05:55:01;;;;;;;3.35;1.98;;;;;;;;;;4916534;29;20050;-63
2020/12/14 05:57:32;;;;;;;0.10;0.10;;;;;;;;;;4915066;29;20543;-61
2020/12/14 06:00:10;;;;;;;0.10;0.10;;;;;;;;;;4898103;29;20034;-62
2020/12/14 06:02:36;;;;;;;0.10;0.10;;;;;;;;;;4917761;29;20027;-60
2020/12/14 06:05:06;;;;;;;0.00;0.00;;;;;;;;;;4917065;29;20106;-60
2020/12/14 06:07:32;;;;;;;0.00;0.00;;;;;;;;;;4917438;29;20035;-60
2020/12/14 06:13:32;;;;;;;0.08;0.08;;;;;;;;;;4916934;28;20031;-60
2020/12/14 06:16:00;;;;;;;0.05;0.05;;;;;;;;;;4911488;29;20054;-60
2020/12/14 06:18:31;;;;;;;0.20;0.20;;;;;;;;;;4914853;29;20083;-60
2020/12/14 06:21:00;;;;;;;0.00;0.00;;;;;;;;;;4918308;29;20294;-61
2020/12/14 06:23:30;;;;;;;0.00;0.00;;;;;;;;;;4889868;29;20442;-59
2020/12/14 06:25:56;;;;;;;0.93;0.25;;;;;;;;;;4916891;29;20433;-59
2020/12/14 06:28:31;;;;;;;0.00;0.00;;;;;;;;;;4893507;29;20031;-59
2020/12/14 06:31:00;;;;;;;0.00;0.00;;;;;;;;;;4917098;29;20057;-61
2020/12/14 06:33:35;;;;;;;0.10;0.10;;;;;;;;;;4898071;29;20043;-59
2020/12/14 06:36:22;;;;;;;0.08;0.08;;;;;;;;;;4915643;29;21684;-59
2020/12/14 06:38:51;;;;;;;0.00;0.00;;;;;;;;;;4924256;28;20120;-59
2020/12/14 06:41:21;;;;;;;0.00;0.00;;;;;;;;;;4915113;28;20074;-59
2020/12/14 06:44:13;;;;;;;0.00;0.00;;;;;;;;;;4916209;28;20498;-60
2020/12/14 06:46:41;;;;;;;0.00;0.00;;;;;;;;;;4930921;28;20030;-60
2020/12/14 06:49:09;;;;;;;0.00;0.00;;;;;;;;;;4918718;28;21051;-61
2020/12/14 06:52:03;;;;;;;0.00;0.00;;;;;;;;;;4932916;28;20848;-60
2020/12/14 06:54:47;;;;;;;0.00;0.00;;;;;;;;;;4932111;28;20054;-60
2020/12/14 06:57:17;;;;;;;0.00;0.00;;;;;;;;;;4932926;28;20031;-59
2020/12/14 06:59:52;;;;;;;3.30;0.60;;;;;;;;;;4934326;28;20117;-59
2020/12/14 07:02:17;;;;;;;0.85;0.70;;;;;;;;;;4932380;28;20035;-60
2020/12/14 07:04:43;;;;;;;0.00;0.00;;;;;;;;;;4929324;28;21015;-59
2020/12/14 07:07:08;;;;;;;0.10;0.10;;;;;;;;;;4930717;28;20997;-60
2020/12/14 07:09:34;;;;;;;0.00;0.00;;;;;;;;;;4931912;28;20035;-60
2020/12/14 07:12:08;;;;;;;0.00;0.00;;;;;;;;;;4934057;28;20034;-60
2020/12/14 07:14:44;;;;;;;0.40;0.40;;;;;;;;;;4932627;28;20550;-61
2020/12/14 07:17:17;;;;;;;0.00;0.00;;;;;;;;;;4933860;28;20039;-61
2020/12/14 07:19:45;;;;;;;0.00;0.00;;;;;;;;;;4917269;28;20098;-60
2020/12/14 07:22:13;;;;;;;0.00;0.00;;;;;;;;;;4929924;28;20836;-60
2020/12/14 07:24:41;;;;;;;0.00;0.00;;;;;;;;;;4926731;28;20622;-61
2020/12/14 07:27:12;;;;;;;0.00;0.00;;;;;;;;;;4919058;28;20187;-60
2020/12/14 07:29:38;;;;;;;0.10;0.10;;;;;;;;;;4932844;28;20027;-60
2020/12/14 07:32:06;;;;;;;0.35;0.35;;;;;;;;;;4932371;28;20078;-61
2020/12/14 07:34:31;;;;;;;0.00;0.00;;;;;;;;;;4920646;28;20180;-60
2020/12/14 07:36:57;;;;;;;0.00;0.00;;;;;;;;;;4936854;28;20041;-60
2020/12/14 07:39:22;;;;;;;0.13;0.13;;;;;;;;;;4935933;28;20152;-60
2020/12/14 07:41:52;;;;;;;0.38;0.38;;;;;;;;;;4921344;28;20598;-60
2020/12/14 07:44:18;;;;;;;0.00;0.00;;;;;;;;;;4937420;28;20561;-61
2020/12/14 07:46:48;;;;;;;0.00;0.00;;;;;;;;;;4936929;28;20069;-61
2020/12/14 07:49:17;;;;;;;0.00;0.00;;;;;;;;;;4918886;28;20034;-60
2020/12/14 07:51:43;;;;;;;0.00;0.00;;;;;;;;;;4935452;28;20027;-60
2020/12/14 07:54:11;;;;;;;0.00;0.00;;;;;;;;;;4932456;28;20993;-60
2020/12/14 07:56:43;;;;;;;1.08;1.08;;;;;;;;;;4938201;28;20069;-60
2020/12/14 07:59:24;;;;;;;0.00;0.00;;;;;;;;;;4936624;28;20041;-61
2020/12/14 08:01:55;;;;;;;0.00;0.00;;;;;;;;;;4936256;28;20039;-61
2020/12/14 08:04:23;;;;;;;0.00;0.00;;;;;;;;;;4934719;28;20034;-60
2020/12/14 08:06:51;;;;;;;0.00;0.00;;;;;;;;;;4935716;28;20082;-61
2020/12/14 08:09:22;;;;;;;0.00;0.00;;;;;;;;;;4937705;28;20464;-62
2020/12/14 08:11:48;;;;;;;0.10;0.10;;;;;;;;;;4938695;28;20027;-61
2020/12/14 08:14:20;;;;;;;0.00;0.00;;;;;;;;;;4937932;28;20038;-60
2020/12/14 08:16:46;;;;;;;0.00;0.00;;;;;;;;;;4937818;28;20109;-60
2020/12/14 08:19:22;;;;;;;0.00;0.00;;;;;;;;;;4936817;28;20206;-60
2020/12/14 08:22:08;;;;;;;0.22;0.22;;;;;;;;;;4937469;28;20042;-60
2020/12/14 08:24:33;;;;;;;0.15;0.15;;;;;;;;;;4938342;28;20062;-59
2020/12/14 08:27:07;;;;;;;0.00;0.00;;;;;;;;;;4936737;28;20581;-60
2020/12/14 08:29:36;;;;;;;0.00;0.00;;;;;;;;;;4937410;28;20030;-60
2020/12/14 08:32:04;;;;;;;0.40;0.40;;;;;;;;;;4933575;28;20026;-60
2020/12/14 08:34:39;;;;;;;0.00;0.00;;;;;;;;;;4918896;28;20045;-60
2020/12/14 08:37:05;;;;;;;0.00;0.00;;;;;;;;;;4935954;28;20031;-60
2020/12/14 08:39:35;;;;;;;0.08;0.08;;;;;;;;;;4931651;28;20566;-60
2020/12/14 08:42:04;;;;;;;0.00;0.00;;;;;;;;;;4935302;28;20102;-61
2020/12/14 08:44:35;;;;;;;0.32;0.32;;;;;;;;;;4909019;28;20030;-60
2020/12/14 08:47:10;;;;;;;0.00;0.00;;;;;;;;;;4935953;28;20487;-60
2020/12/14 08:49:37;;;;;;;0.20;0.20;;;;;;;;;;4935540;28;20117;-61
2020/12/14 08:52:05;;;;;;;0.00;0.00;;;;;;;;;;4916284;28;20022;-62
2020/12/14 08:54:31;;;;;;;0.00;0.00;;;;;;;;;;4936190;28;20026;-61
2020/12/14 08:56:59;;;;;;;0.00;0.00;;;;;;;;;;4913128;28;20031;-61
2020/12/14 08:59:25;;;;;;;0.45;0.35;;;;;;;;;;4936658;28;20546;-61
2020/12/14 09:02:00;;;;;;;0.00;0.00;;;;;;;;;;4935823;28;20018;-60
2020/12/14 09:04:28;;;;;;;0.00;0.00;;;;;;;;;;4935242;28;20027;-61
2020/12/14 09:06:54;;;;;;;1.77;0.47;;;;;;;;;;4935352;28;20482;-60
2020/12/14 09:09:27;;;;;;;0.17;0.17;;;;;;;;;;4937669;28;20335;-60
2020/12/14 09:11:55;;;;;;;0.00;0.00;;;;;;;;;;4934232;28;20027;-60
2020/12/14 09:14:25;;;;;;;0.05;0.05;;;;;;;;;;4914910;28;20664;-62
2020/12/14 09:16:54;;;;;;;0.65;0.65;;;;;;;;;;4936320;28;20752;-59
2020/12/14 09:19:24;;;;;;;0.00;0.00;;;;;;;;;;4936989;28;20369;-61
2020/12/14 09:21:52;;;;;;;0.98;0.95;;;;;;;;;;4933401;28;20145;-61
2020/12/14 09:24:20;;;;;;;0.00;0.00;;;;;;;;;;4935740;28;20030;-60
2020/12/14 09:26:46;;;;;;;0.45;0.45;;;;;;;;;;4933235;28;20043;-62
2020/12/14 09:29:15;;;;;;;0.10;0.10;;;;;;;;;;4918737;28;20486;-64
2020/12/14 09:31:52;;;;;;;0.00;0.00;;;;;;;;;;4935704;28;20030;-61
2020/12/14 09:34:20;;;;;;;0.00;0.00;;;;;;;;;;4916556;28;20066;-62
2020/12/14 09:36:49;;;;;;;0.30;0.30;;;;;;;;;;4917523;28;20122;-61
2020/12/14 09:39:22;;;;;;;0.00;0.00;;;;;;;;;;4936793;28;20558;-62
2020/12/14 09:41:47;;;;;;;0.00;0.00;;;;;;;;;;4933227;28;20098;-61
2020/12/14 09:44:18;;;;;;;0.00;0.00;;;;;;;;;;4918431;28;20030;-61
2020/12/14 09:46:45;;;;;;;0.00;0.00;;;;;;;;;;4917180;28;20051;-60
2020/12/14 09:49:11;;;;;;;0.15;0.15;;;;;;;;;;4931319;28;20087;-61
2020/12/14 09:51:37;;;;;;;0.00;0.00;;;;;;;;;;4915198;28;20042;-60
2020/12/14 09:54:05;;;;;;;0.10;0.10;;;;;;;;;;4935675;28;20423;-60
2020/12/14 09:56:35;;;;;;;0.00;0.00;;;;;;;;;;4916048;28;20113;-61
2020/12/14 09:59:01;;;;;;;0.05;0.05;;;;;;;;;;4937380;28;20035;-61
2020/12/14 10:01:29;;;;;;;0.25;0.25;;;;;;;;;;4932018;28;20333;-62
2020/12/14 10:03:55;;;;;;;0.00;0.00;;;;;;;;;;4917464;28;20434;-61
2020/12/14 10:06:21;;;;;;;0.00;0.00;;;;;;;;;;4935014;28;20316;-61
2020/12/14 10:08:49;;;;;;;0.00;0.00;;;;;;;;;;4933581;28;20045;-61
2020/12/14 10:11:17;;;;;;;0.15;0.15;;;;;;;;;;4937009;28;20121;-60
2020/12/14 10:13:43;;;;;;;0.10;0.10;;;;;;;;;;4916259;28;20474;-60
2020/12/14 10:16:16;;;;;;;0.00;0.00;;;;;;;;;;4933694;28;20058;-60
2020/12/14 10:18:42;;;;;;;0.00;0.00;;;;;;;;;;4936857;28;20154;-61
2020/12/14 10:21:10;;;;;;;0.22;0.10;;;;;;;;;;4935580;28;20027;-60
2020/12/14 10:23:35;;;;;;;0.13;0.13;;;;;;;;;;4898758;28;20054;-61
2020/12/14 10:26:05;;;;;;;0.20;0.20;;;;;;;;;;4931205;28;20023;-60
2020/12/14 10:28:31;;;;;;;0.00;0.00;;;;;;;;;;4935859;28;20069;-61
2020/12/14 10:30:58;;;;;;;0.00;0.00;;;;;;;;;;4929086;28;20030;-61
2020/12/14 10:33:29;;;;;;;0.00;0.00;;;;;;;;;;4916695;28;20193;-60
2020/12/14 10:35:54;;;;;;;0.00;0.00;;;;;;;;;;4913854;28;20086;-61
2020/12/14 10:38:19;;;;;;;0.00;0.00;;;;;;;;;;4910130;28;20075;-62
2020/12/14 10:41:18;;;;;;;0.00;0.00;;;;;;;;;;4915249;29;20042;-62
2020/12/14 10:43:46;;;;;;;0.17;0.17;;;;;;;;;;4915727;29;20031;-61
2020/12/14 10:46:17;;;;;;;0.00;0.00;;;;;;;;;;4909380;29;20024;-61
2020/12/14 10:48:48;;;;;;;0.45;0.43;;;;;;;;;;4895911;29;20122;-61
2020/12/14 10:51:18;;;;;;;0.00;0.00;;;;;;;;;;4912071;29;20043;-60
2020/12/14 10:53:51;;;;;;;0.00;0.00;;;;;;;;;;4899523;29;20040;-63
2020/12/14 10:56:19;;;;;;;3.50;0.73;;;;;;;;;;4913348;29;20047;-60
2020/12/14 10:58:49;;;;;;;0.00;0.00;;;;;;;;;;4885946;29;20095;-61
2020/12/14 11:01:19;;;;;;;0.60;0.32;;;;;;;;;;4897921;29;20038;-62
2020/12/14 11:03:50;;;;;;;0.00;0.00;;;;;;;;;;4883721;29;20110;-61
2020/12/14 11:06:15;;;;;;;0.00;0.00;;;;;;;;;;4920814;29;20023;-62
2020/12/14 11:08:46;;;;;;;0.00;0.00;;;;;;;;;;4917899;29;20046;-63
2020/12/14 11:11:19;;;;;;;0.55;0.35;;;;;;;;;;4917861;28;20031;-61
2020/12/14 11:13:45;;;;;;;0.00;0.00;;;;;;;;;;4917945;28;20035;-61
2020/12/14 11:16:14;;;;;;;0.00;0.00;;;;;;;;;;4920977;29;20124;-59
2020/12/14 11:18:41;;;;;;;0.13;0.13;;;;;;;;;;4885168;29;20053;-61
2020/12/14 11:21:07;;;;;;;0.00;0.00;;;;;;;;;;4900815;29;20103;-61
2020/12/14 11:23:33;;;;;;;0.10;0.10;;;;;;;;;;4918079;29;20043;-60
2020/12/14 11:25:58;;;;;;;0.08;0.08;;;;;;;;;;4900592;29;20647;-62
2020/12/14 11:28:27;;;;;;;0.10;0.10;;;;;;;;;;4921123;29;20046;-60
2020/12/14 11:30:55;;;;;;;0.00;0.00;;;;;;;;;;4918451;29;20067;-60
2020/12/14 11:33:23;;;;;;;0.00;0.00;;;;;;;;;;4916173;28;20047;-61
2020/12/14 11:35:53;;;;;;;0.00;0.00;;;;;;;;;;4902217;29;20635;-61
2020/12/14 11:38:19;;;;;;;0.00;0.00;;;;;;;;;;4902938;28;20051;-61
2020/12/14 11:40:46;;;;;;;0.13;0.13;;;;;;;;;;4915303;28;20100;-59
2020/12/14 11:43:16;;;;;;;0.00;0.00;;;;;;;;;;4938172;28;20039;-60
2020/12/14 11:45:45;;;;;;;0.00;0.00;;;;;;;;;;4935599;28;21586;-60
2020/12/14 11:48:15;;;;;;;0.00;0.00;;;;;;;;;;4930768;28;20117;-60
2020/12/14 11:50:43;;;;;;;0.25;0.20;;;;;;;;;;4931005;28;20453;-61
2020/12/14 11:53:09;;;;;;;0.00;0.00;;;;;;;;;;4916566;28;20161;-60
2020/12/14 11:55:37;;;;;;;0.00;0.00;;;;;;;;;;4936460;28;20113;-59
2020/12/14 11:58:03;;;;;;;0.22;0.22;;;;;;;;;;4935776;28;20514;-61
2020/12/14 12:00:31;;;;;;;0.57;0.57;;;;;;;;;;4917859;28;20027;-61
2020/12/14 12:02:57;;;;;;;0.00;0.00;;;;;;;;;;4936408;28;20035;-61
2020/12/14 12:05:27;;;;;;;0.10;0.10;;;;;;;;;;4937294;28;20054;-61
2020/12/14 12:07:55;;;;;;;0.00;0.00;;;;;;;;;;4930156;28;20038;-61
2020/12/14 12:10:20;;;;;;;0.30;0.15;;;;;;;;;;4932055;28;20043;-61
2020/12/14 12:12:48;;;;;;;0.00;0.00;;;;;;;;;;4930429;28;20373;-62
2020/12/14 12:15:15;;;;;;;0.13;0.13;;;;;;;;;;4915037;28;20182;-60
2020/12/14 12:17:47;;;;;;;0.00;0.00;;;;;;;;;;4932275;28;20039;-62
2020/12/14 12:20:13;;;;;;;0.00;0.00;;;;;;;;;;4919130;28;20034;-61
2020/12/14 12:22:40;;;;;;;0.00;0.00;;;;;;;;;;4904108;28;20133;-62
2020/12/14 12:25:10;;;;;;;0.00;0.00;;;;;;;;;;4934644;28;20042;-60
2020/12/14 12:27:38;;;;;;;0.40;0.32;;;;;;;;;;4937104;28;20043;-66
2020/12/14 12:30:04;;;;;;;0.00;0.00;;;;;;;;;;4918053;28;20063;-64
2020/12/14 12:32:35;;;;;;;0.00;0.00;;;;;;;;;;4937191;28;20035;-62
2020/12/14 12:35:03;;;;;;;0.00;0.00;;;;;;;;;;4932201;28;20043;-62
2020/12/14 12:37:28;;;;;;;0.00;0.00;;;;;;;;;;4934612;28;20447;-62
2020/12/14 12:39:59;;;;;;;0.10;0.10;;;;;;;;;;4916953;28;20567;-61
2020/12/14 12:42:27;;;;;;;0.00;0.00;;;;;;;;;;4934902;28;20822;-61
2020/12/14 12:44:55;;;;;;;0.93;0.77;;;;;;;;;;4938658;28;20522;-61
2020/12/14 12:47:26;;;;;;;0.00;0.00;;;;;;;;;;4915655;28;20039;-63
2020/12/14 12:49:51;;;;;;;0.00;0.00;;;;;;;;;;4933511;28;20748;-62
2020/12/14 12:52:22;;;;;;;0.00;0.00;;;;;;;;;;4936510;28;20034;-64
2020/12/14 12:54:47;;;;;;;0.32;0.32;;;;;;;;;;4917701;28;20050;-62
2020/12/14 12:57:16;;;;;;;0.00;0.00;;;;;;;;;;4921742;28;20031;-62
2020/12/14 12:59:41;;;;;;;0.10;0.10;;;;;;;;;;4932722;28;20126;-62
2020/12/14 13:02:10;;;;;;;0.00;0.00;;;;;;;;;;4917787;28;20130;-62
2020/12/14 13:04:38;;;;;;;0.03;0.03;;;;;;;;;;4936279;28;20039;-62
2020/12/14 13:07:06;;;;;;;0.00;0.00;;;;;;;;;;4917383;28;20039;-61
2020/12/14 13:09:33;;;;;;;0.05;0.05;;;;;;;;;;4912373;28;20085;-63
2020/12/14 13:12:01;;;;;;;0.00;0.00;;;;;;;;;;4917008;28;20023;-62
2020/12/14 13:14:29;;;;;;;0.47;0.47;;;;;;;;;;4934254;28;20019;-62
2020/12/14 13:16:55;;;;;;;0.98;0.40;;;;;;;;;;4915310;28;20027;-61
2020/12/14 13:19:21;;;;;;;0.10;0.10;;;;;;;;;;4930892;28;20104;-63
2020/12/14 13:21:48;;;;;;;0.00;0.00;;;;;;;;;;4933060;28;20035;-62
2020/12/14 13:24:16;;;;;;;0.00;0.00;;;;;;;;;;4933721;28;20120;-64
2020/12/14 13:26:44;;;;;;;0.30;0.30;;;;;;;;;;4911279;28;22171;-63
2020/12/14 13:29:10;;;;;;;0.00;0.00;;;;;;;;;;4936570;28;20030;-61
2020/12/14 13:31:38;;;;;;;0.00;0.00;;;;;;;;;;4934267;28;20039;-62
2020/12/14 13:34:07;;;;;;;0.05;0.05;;;;;;;;;;4917927;28;20047;-62
2020/12/14 13:36:34;;;;;;;0.00;0.00;;;;;;;;;;4935620;28;20223;-63
2020/12/14 13:39:02;;;;;;;0.08;0.08;;;;;;;;;;4934880;28;21516;-62
2020/12/14 13:41:32;;;;;;;0.00;0.00;;;;;;;;;;4919192;28;20031;-63
2020/12/14 13:44:00;;;;;;;0.20;0.20;;;;;;;;;;4938264;28;20031;-63
2020/12/14 13:46:26;;;;;;;0.10;0.10;;;;;;;;;;4919210;28;20435;-64
2020/12/14 13:48:51;;;;;;;0.00;0.00;;;;;;;;;;4931713;28;20233;-63
2020/12/14 13:51:20;;;;;;;0.00;0.00;;;;;;;;;;4935614;28;20126;-64
2020/12/14 13:53:46;;;;;;;0.20;0.20;;;;;;;;;;4932106;28;20837;-63
2020/12/14 13:56:12;;;;;;;0.00;0.00;;;;;;;;;;4932728;28;20034;-62
2020/12/14 13:58:37;;;;;;;0.00;0.00;;;;;;;;;;4904941;28;20038;-62
2020/12/14 14:01:05;;;;;;;0.00;0.00;;;;;;;;;;4917215;28;20169;-63
2020/12/14 14:03:35;;;;;;;0.08;0.08;;;;;;;;;;4936885;28;20023;-62
2020/12/14 14:06:04;;;;;;;0.00;0.00;;;;;;;;;;4920351;28;20098;-63
2020/12/14 14:08:33;;;;;;;0.00;0.00;;;;;;;;;;4936054;28;20049;-66
2020/12/14 14:11:04;;;;;;;0.00;0.00;;;;;;;;;;4904341;28;20090;-63
2020/12/14 14:13:32;;;;;;;0.20;0.20;;;;;;;;;;4934931;28;20027;-61
2020/12/14 14:15:57;;;;;;;0.00;0.00;;;;;;;;;;4920661;28;20102;-63
2020/12/14 14:18:23;;;;;;;0.00;0.00;;;;;;;;;;4931570;28;20047;-63
2020/12/14 14:20:50;;;;;;;0.30;0.30;;;;;;;;;;4934241;28;20046;-64
2020/12/14 14:23:21;;;;;;;0.00;0.00;;;;;;;;;;4929366;28;20026;-64
2020/12/14 14:25:46;;;;;;;0.00;0.00;;;;;;;;;;4914363;28;20475;-64
2020/12/14 14:28:14;;;;;;;0.00;0.00;;;;;;;;;;4935782;28;20058;-64
2020/12/14 14:30:43;;;;;;;0.00;0.00;;;;;;;;;;4920796;28;20039;-64
2020/12/14 14:33:13;;;;;;;0.00;0.00;;;;;;;;;;4937231;28;20375;-65
2020/12/14 14:35:41;;;;;;;1.38;0.45;;;;;;;;;;4906936;28;20196;-66
2020/12/14 14:38:09;;;;;;;0.00;0.00;;;;;;;;;;4922086;28;20057;-64
2020/12/14 14:40:39;;;;;;;0.00;0.00;;;;;;;;;;4937711;28;20073;-63
2020/12/14 14:43:25;;;;;;;0.22;0.22;;;;;;;;;;4922258;28;20035;-64
2020/12/14 14:45:55;;;;;;;0.05;0.03;;;;;;;;;;4921292;28;20038;-65
2020/12/14 14:48:26;;;;;;;0.00;0.00;;;;;;;;;;4939101;28;20041;-63
2020/12/14 14:50:56;;;;;;;0.35;0.35;;;;;;;;;;4933412;28;20488;-62
2020/12/14 14:53:24;;;;;;;0.00;0.00;;;;;;;;;;4928133;28;20209;-66
2020/12/14 14:55:52;;;;;;;0.20;0.20;;;;;;;;;;4919726;28;20093;-63